createdAt,value
2023-05-13T00:01:51.405Z,14.58
2023-05-13T00:04:18.773Z,14.53
2023-05-13T00:06:46.000Z,14.51
2023-05-13T00:09:13.190Z,14.48
2023-05-13T00:11:40.390Z,14.46
2023-05-13T00:14:29.387Z,14.42
2023-05-13T00:16:58.715Z,14.39
2023-05-13T00:19:26.125Z,14.35
2023-05-13T00:21:53.297Z,14.31
2023-05-13T00:24:20.657Z,14.27
2023-05-13T00:26:47.985Z,14.22
2023-05-13T00:29:15.308Z,14.19
2023-05-13T00:31:42.528Z,14.15
2023-05-13T00:34:09.854Z,14.12
2023-05-13T00:37:33.666Z,14.07
2023-05-13T00:40:00.877Z,14.05
2023-05-13T00:42:28.042Z,14.04
2023-05-13T00:44:55.293Z,14.03
2023-05-13T00:47:22.628Z,14.02
2023-05-13T00:49:49.925Z,14.01
2023-05-13T00:52:17.093Z,14.02
2023-05-13T01:02:56.428Z,14.04
2023-05-13T01:05:29.842Z,14.03
2023-05-13T01:08:20.191Z,14.02
2023-05-13T01:10:52.941Z,14.01
2023-05-13T01:13:25.031Z,14.00
2023-05-13T01:16:20.234Z,13.99
2023-05-13T01:18:54.255Z,13.99
2023-05-13T01:21:35.896Z,13.97
2023-05-13T01:24:03.172Z,13.92
2023-05-13T01:26:30.523Z,13.89
2023-05-13T01:28:57.664Z,13.87
2023-05-13T01:31:25.618Z,13.85
2023-05-13T01:33:53.265Z,13.83
2023-05-13T01:36:20.860Z,13.80
2023-05-13T01:38:48.902Z,13.77
2023-05-13T01:41:16.238Z,13.75
2023-05-13T01:43:43.398Z,13.74
2023-05-13T01:46:13.775Z,13.69
2023-05-13T01:48:41.141Z,13.66
2023-05-13T01:51:09.132Z,13.63
2023-05-13T01:53:36.592Z,13.59
2023-05-13T01:56:03.959Z,13.56
2023-05-13T01:58:31.207Z,13.52
2023-05-13T02:00:58.465Z,13.50
2023-05-13T02:03:26.103Z,13.48
2023-05-13T02:05:53.434Z,13.44
2023-05-13T02:08:22.133Z,13.43
2023-05-13T02:10:59.344Z,13.40
2023-05-13T02:13:26.874Z,13.38
2023-05-13T02:16:22.837Z,13.34
2023-05-13T02:18:50.270Z,13.31
2023-05-13T02:21:17.528Z,13.30
2023-05-13T02:23:44.725Z,13.26
2023-05-13T02:26:11.960Z,13.20
2023-05-13T02:28:39.230Z,13.17
2023-05-13T02:31:06.754Z,13.15
2023-05-13T02:33:34.009Z,13.15
2023-05-13T02:36:01.287Z,13.13
2023-05-13T02:38:28.513Z,13.09
2023-05-13T02:40:55.808Z,13.10
2023-05-13T02:43:24.918Z,13.10
2023-05-13T02:45:52.179Z,13.14
2023-05-13T02:48:19.686Z,13.14
2023-05-13T02:50:47.151Z,13.16
2023-05-13T02:53:14.355Z,13.17
2023-05-13T02:55:41.498Z,13.20
2023-05-13T02:58:09.454Z,13.20
2023-05-13T03:00:36.639Z,13.21
2023-05-13T03:03:04.087Z,13.21
2023-05-13T03:05:31.505Z,13.21
2023-05-13T03:07:58.705Z,13.21
2023-05-13T03:10:25.939Z,13.20
2023-05-13T03:12:53.297Z,13.17
2023-05-13T03:15:32.438Z,13.12
2023-05-13T03:18:00.738Z,13.09
2023-05-13T03:20:27.947Z,13.06
2023-05-13T03:22:55.241Z,13.01
2023-05-13T03:25:22.371Z,12.97
2023-05-13T03:27:49.705Z,12.92
2023-05-13T03:30:16.875Z,12.90
2023-05-13T03:32:44.072Z,12.88
2023-05-13T03:35:11.353Z,12.84
2023-05-13T03:37:38.547Z,12.80
2023-05-13T03:40:06.638Z,12.76
2023-05-13T03:42:33.849Z,12.76
2023-05-13T03:45:01.082Z,12.73
2023-05-13T03:47:28.536Z,12.71
2023-05-13T03:49:55.809Z,12.70
2023-05-13T03:52:23.193Z,12.70
2023-05-13T03:54:50.562Z,12.69
2023-05-13T03:57:17.706Z,12.70
2023-05-13T03:59:44.876Z,12.69
2023-05-13T04:02:12.171Z,12.71
2023-05-13T04:04:39.389Z,12.70
2023-05-13T04:07:06.746Z,12.68
2023-05-13T04:09:33.951Z,12.70
2023-05-13T04:12:01.273Z,12.72
2023-05-13T04:14:28.469Z,12.70
2023-05-13T04:16:55.785Z,12.72
2023-05-13T04:19:22.947Z,12.74
2023-05-13T04:21:50.260Z,12.73
2023-05-13T04:24:17.483Z,12.74
2023-05-13T04:26:44.791Z,12.78
2023-05-13T04:29:12.134Z,12.81
2023-05-13T04:31:39.332Z,12.88
2023-05-13T04:34:06.585Z,12.92
2023-05-13T04:36:33.794Z,12.98
2023-05-13T04:39:01.031Z,13.02
2023-05-13T04:41:28.317Z,13.08
2023-05-13T04:43:55.684Z,13.13
2023-05-13T04:46:23.008Z,13.16
2023-05-13T04:48:50.205Z,13.20
2023-05-13T04:51:17.925Z,13.23
2023-05-13T04:53:45.671Z,13.29
2023-05-13T04:56:12.891Z,13.32
2023-05-13T04:58:40.154Z,13.36
2023-05-13T05:01:07.521Z,13.40
2023-05-13T05:03:34.838Z,13.44
2023-05-13T05:06:02.048Z,13.48
2023-05-13T05:08:29.424Z,13.52
2023-05-13T05:10:56.678Z,13.57
2023-05-13T05:13:23.851Z,13.60
2023-05-13T05:15:51.258Z,13.66
2023-05-13T05:18:18.457Z,13.73
2023-05-13T05:20:45.765Z,13.80
2023-05-13T05:23:13.010Z,13.88
2023-05-13T05:25:40.410Z,13.96
2023-05-13T05:28:09.350Z,14.04
2023-05-13T05:30:39.942Z,14.13
2023-05-13T05:33:08.122Z,14.22
2023-05-13T05:35:38.587Z,14.31
2023-05-13T05:38:07.364Z,14.38
2023-05-13T05:40:40.976Z,14.46
2023-05-13T05:43:08.438Z,14.54
2023-05-13T05:45:36.190Z,14.62
2023-05-13T05:48:03.776Z,14.71
2023-05-13T05:50:31.165Z,14.80
2023-05-13T05:52:59.322Z,14.88
2023-05-13T05:56:29.696Z,15.01
2023-05-13T05:58:56.910Z,15.13
2023-05-13T06:01:24.183Z,15.20
2023-05-13T06:03:53.953Z,15.31
2023-05-13T06:06:22.134Z,15.41
2023-05-13T06:08:49.316Z,15.49
2023-05-13T06:11:16.644Z,15.58
2023-05-13T06:13:44.115Z,15.68
2023-05-13T06:16:11.351Z,15.76
2023-05-13T06:18:38.655Z,15.84
2023-05-13T06:21:05.968Z,15.90
2023-05-13T06:23:33.164Z,15.98
2023-05-13T06:26:00.540Z,16.10
2023-05-13T06:28:27.684Z,16.15
2023-05-13T06:30:54.928Z,16.26
2023-05-13T06:33:22.337Z,16.33
2023-05-13T06:35:49.770Z,16.43
2023-05-13T06:38:19.752Z,16.56
2023-05-13T06:40:46.939Z,16.70
2023-05-13T06:43:18.280Z,16.79
2023-05-13T06:45:45.715Z,16.90
2023-05-13T06:48:13.621Z,17.03
2023-05-13T06:50:41.047Z,17.12
2023-05-13T06:53:09.677Z,17.19
2023-05-13T06:55:41.735Z,17.28
2023-05-13T06:58:09.448Z,17.37
2023-05-13T07:00:38.089Z,17.48
2023-05-13T07:03:05.874Z,17.57
2023-05-13T07:05:34.174Z,17.66
2023-05-13T07:08:06.497Z,17.70
2023-05-13T07:10:34.375Z,17.77
2023-05-13T07:13:02.467Z,17.90
2023-05-13T07:15:29.905Z,18.03
2023-05-13T07:17:57.098Z,18.05
2023-05-13T07:20:25.548Z,18.14
2023-05-13T07:22:52.848Z,18.25
2023-05-13T07:25:20.048Z,18.36
2023-05-13T07:27:47.926Z,18.38
2023-05-13T07:30:15.372Z,18.41
2023-05-13T07:32:42.606Z,18.48
2023-05-13T07:35:10.501Z,18.59
2023-05-13T07:37:37.701Z,18.70
2023-05-13T07:40:08.452Z,18.84
2023-05-13T07:42:37.035Z,18.92
2023-05-13T07:45:05.643Z,19.05
2023-05-13T07:47:33.673Z,19.11
2023-05-13T07:50:00.894Z,19.18
2023-05-13T07:52:28.171Z,19.23
2023-05-13T07:54:55.516Z,19.30
2023-05-13T07:57:22.774Z,19.38
2023-05-13T07:59:49.976Z,19.40
2023-05-13T08:02:17.256Z,19.45
2023-05-13T08:04:44.531Z,19.53
2023-05-13T08:07:11.819Z,19.64
2023-05-13T08:09:39.140Z,19.69
2023-05-13T08:12:06.620Z,19.71
2023-05-13T08:14:33.830Z,19.76
2023-05-13T08:17:01.045Z,19.80
2023-05-13T08:19:28.324Z,19.81
2023-05-13T08:21:55.666Z,19.86
2023-05-13T08:24:22.897Z,19.90
2023-05-13T08:26:50.221Z,19.89
2023-05-13T08:29:17.552Z,19.95
2023-05-13T08:31:44.769Z,20.05
2023-05-13T08:34:12.015Z,20.08
2023-05-13T08:36:40.408Z,20.10
2023-05-13T08:39:08.471Z,20.17
2023-05-13T08:41:36.334Z,20.22
2023-05-13T08:44:07.691Z,20.32
2023-05-13T08:46:41.235Z,20.38
2023-05-13T08:49:09.654Z,20.45
2023-05-13T08:51:37.260Z,20.51
2023-05-13T08:54:04.961Z,20.51
2023-05-13T08:56:32.336Z,20.62
2023-05-13T08:58:59.584Z,20.66
2023-05-13T09:01:27.454Z,20.73
2023-05-13T09:04:00.000Z,20.81
2023-05-13T09:06:27.229Z,20.80
2023-05-13T09:08:55.251Z,20.80
2023-05-13T09:11:23.205Z,20.88
2023-05-13T09:13:58.361Z,20.97
2023-05-13T09:16:27.521Z,20.95
2023-05-13T09:18:59.936Z,21.02
2023-05-13T09:21:36.002Z,21.15
2023-05-13T09:24:18.036Z,21.31
2023-05-13T09:26:46.372Z,21.42
2023-05-13T09:29:23.891Z,21.43
2023-05-13T09:31:56.124Z,21.52
2023-05-13T09:34:34.627Z,21.60
2023-05-13T09:37:06.525Z,21.63
2023-05-13T09:39:38.761Z,21.59
2023-05-13T09:42:06.348Z,21.62
2023-05-13T09:44:34.165Z,21.68
2023-05-13T09:47:02.739Z,21.87
2023-05-13T09:49:31.734Z,21.98
2023-05-13T09:51:59.040Z,22.09
2023-05-13T09:54:27.318Z,22.21
2023-05-13T09:59:25.975Z,22.45
2023-05-13T10:01:54.950Z,22.37
2023-05-13T10:04:23.190Z,22.19
2023-05-13T10:06:50.752Z,22.26
2023-05-13T10:09:18.452Z,22.50
2023-05-13T10:11:47.758Z,22.58
2023-05-13T10:14:15.228Z,22.63
2023-05-13T10:16:43.170Z,22.69
2023-05-13T10:19:10.833Z,22.80
2023-05-13T10:21:38.649Z,22.75
2023-05-13T10:24:07.049Z,22.74
2023-05-13T10:26:34.599Z,22.87
2023-05-13T10:29:02.581Z,23.06
2023-05-13T10:31:29.947Z,23.27
2023-05-13T10:33:57.195Z,23.37
2023-05-13T10:36:34.893Z,23.30
2023-05-13T10:39:10.970Z,23.35
2023-05-13T10:42:08.871Z,23.50
2023-05-13T10:44:36.367Z,23.69
2023-05-13T10:47:03.707Z,23.79
2023-05-13T10:49:35.005Z,23.69
2023-05-13T10:52:13.504Z,23.84
2023-05-13T10:54:42.186Z,23.91
2023-05-13T10:57:09.720Z,23.96
2023-05-13T10:59:38.866Z,24.04
2023-05-13T11:02:22.098Z,24.02
2023-05-13T11:05:00.284Z,24.14
2023-05-13T11:07:30.746Z,24.03
2023-05-13T11:09:59.669Z,24.12
2023-05-13T11:12:26.901Z,24.25
2023-05-13T11:14:57.187Z,24.30
2023-05-13T11:17:24.354Z,24.49
2023-05-13T11:19:53.265Z,24.64
2023-05-13T11:22:22.422Z,24.81
2023-05-13T11:25:22.123Z,24.95
2023-05-13T11:27:49.269Z,24.94
2023-05-13T11:30:24.391Z,24.87
2023-05-13T11:32:52.689Z,24.87
2023-05-13T11:35:20.952Z,24.94
2023-05-13T11:37:49.246Z,24.92
2023-05-13T11:40:30.562Z,24.99
2023-05-13T11:42:58.695Z,25.20
2023-05-13T11:45:26.941Z,25.16
2023-05-13T11:47:55.014Z,25.31
2023-05-13T11:50:29.883Z,25.55
2023-05-13T11:52:58.709Z,25.64
2023-05-13T11:55:34.545Z,25.68
2023-05-13T11:58:02.463Z,25.65
2023-05-13T12:00:35.067Z,25.68
2023-05-13T12:03:10.235Z,25.96
2023-05-13T12:05:38.972Z,26.09
2023-05-13T12:08:08.028Z,26.19
2023-05-13T12:10:35.542Z,26.14
2023-05-13T12:13:02.847Z,26.17
2023-05-13T12:15:30.722Z,26.32
2023-05-13T12:17:58.107Z,26.43
2023-05-13T12:20:25.527Z,26.41
2023-05-13T12:22:54.733Z,26.46
2023-05-13T12:25:39.792Z,26.61
2023-05-13T12:28:09.249Z,26.81
2023-05-13T12:30:37.962Z,27.02
2023-05-13T12:33:05.451Z,27.24
2023-05-13T12:35:33.409Z,27.45
2023-05-13T12:38:04.610Z,27.17
2023-05-13T12:40:32.429Z,27.20
2023-05-13T12:43:00.576Z,27.35
2023-05-13T12:45:32.457Z,27.38
2023-05-13T12:48:00.752Z,27.39
2023-05-13T12:50:28.166Z,27.25
2023-05-13T12:52:57.659Z,27.29
2023-05-13T12:55:27.207Z,27.61
2023-05-13T12:58:01.033Z,27.86
2023-05-13T13:04:46.249Z,27.62
2023-05-13T13:07:14.742Z,27.51
2023-05-13T13:09:42.037Z,27.73
2023-05-13T13:12:09.211Z,28.07
2023-05-13T13:14:36.359Z,28.42
2023-05-13T13:17:03.604Z,28.98
2023-05-13T13:19:31.207Z,29.25
2023-05-13T13:21:58.538Z,29.01
2023-05-13T13:24:25.773Z,28.71
2023-05-13T13:26:54.486Z,28.87
2023-05-13T13:29:22.144Z,28.73
2023-05-13T13:31:49.587Z,28.61
2023-05-13T13:34:16.799Z,28.57
2023-05-13T13:36:43.968Z,28.86
2023-05-13T13:39:11.116Z,29.41
2023-05-13T13:41:38.276Z,29.88
2023-05-13T13:44:05.461Z,30.09
2023-05-13T13:46:32.717Z,30.24
2023-05-13T13:49:00.897Z,30.54
2023-05-13T13:51:29.478Z,30.72
2023-05-13T13:53:56.569Z,30.59
2023-05-13T13:56:24.306Z,30.44
2023-05-13T13:58:51.488Z,30.93
2023-05-13T14:01:19.611Z,31.15
2023-05-13T14:03:50.385Z,30.76
2023-05-13T14:06:17.696Z,29.89
2023-05-13T14:08:44.941Z,29.52
2023-05-13T14:11:12.125Z,30.87
2023-05-13T14:13:39.393Z,32.92
2023-05-13T14:16:06.752Z,35.23
2023-05-13T14:18:33.935Z,36.81
2023-05-13T14:21:01.657Z,36.41
2023-05-13T14:23:28.870Z,34.71
2023-05-13T14:25:56.069Z,32.82
2023-05-13T14:28:25.048Z,32.57
2023-05-13T14:30:52.496Z,32.89
2023-05-13T14:33:19.665Z,36.13
2023-05-13T14:35:46.835Z,39.53
2023-05-13T14:38:14.014Z,42.01
2023-05-13T14:40:41.400Z,44.40
2023-05-13T14:43:08.573Z,44.12
2023-05-13T14:45:36.302Z,44.65
2023-05-13T14:48:03.675Z,46.34
2023-05-13T14:50:30.870Z,46.93
2023-05-13T14:52:58.011Z,48.29
2023-05-13T14:55:25.225Z,49.15
2023-05-13T14:57:52.425Z,50.04
2023-05-13T15:00:19.822Z,50.98
2023-05-13T15:02:47.216Z,51.16
2023-05-13T15:05:14.579Z,51.34
2023-05-13T15:07:41.933Z,50.75
2023-05-13T15:10:09.526Z,50.73
2023-05-13T15:12:36.810Z,50.63
2023-05-13T15:15:04.483Z,51.40
2023-05-13T15:17:31.676Z,52.24
2023-05-13T15:19:58.808Z,52.84
2023-05-13T15:22:26.017Z,52.69
2023-05-13T15:24:53.245Z,52.48
2023-05-13T15:27:20.498Z,52.14
2023-05-13T15:29:47.703Z,51.99
2023-05-13T15:32:14.809Z,52.61
2023-05-13T15:34:41.967Z,52.78
2023-05-13T15:37:09.121Z,52.88
2023-05-13T15:39:36.337Z,52.81
2023-05-13T15:42:03.683Z,53.14
2023-05-13T15:44:30.881Z,51.03
2023-05-13T15:46:58.106Z,46.46
2023-05-13T15:49:25.399Z,41.83
2023-05-13T15:51:54.436Z,38.37
2023-05-13T15:54:21.680Z,35.54
2023-05-13T15:56:48.835Z,33.32
2023-05-13T15:59:16.079Z,31.70
2023-05-13T16:01:43.323Z,30.29
2023-05-13T16:04:10.672Z,29.31
2023-05-13T16:06:38.404Z,28.35
2023-05-13T16:09:05.634Z,27.32
2023-05-13T16:11:32.998Z,26.34
2023-05-13T16:14:00.709Z,25.78
2023-05-13T16:16:28.276Z,25.29
2023-05-13T16:18:55.645Z,24.71
2023-05-13T16:21:23.001Z,24.18
2023-05-13T16:23:51.141Z,23.73
2023-05-13T16:26:18.517Z,23.19
2023-05-13T16:28:46.119Z,22.91
2023-05-13T16:31:13.993Z,22.67
2023-05-13T16:33:41.600Z,22.31
2023-05-13T16:36:10.717Z,22.04
2023-05-13T16:38:41.321Z,21.88
2023-05-13T16:41:08.708Z,21.88
2023-05-13T16:43:36.137Z,21.69
2023-05-13T16:46:03.603Z,21.53
2023-05-13T16:48:31.233Z,21.59
2023-05-13T16:50:58.613Z,21.64
2023-05-13T16:53:26.298Z,21.67
2023-05-13T16:55:53.813Z,21.73
2023-05-13T16:58:21.294Z,21.69
2023-05-13T17:00:48.523Z,21.58
2023-05-13T17:03:16.297Z,21.53
2023-05-13T17:05:43.947Z,21.46
2023-05-13T17:08:12.363Z,21.45
2023-05-13T17:10:39.860Z,21.43
2023-05-13T17:13:07.478Z,21.34
2023-05-13T17:15:34.894Z,21.24
2023-05-13T17:18:02.532Z,21.16
2023-05-13T17:20:30.121Z,21.06
2023-05-13T17:22:57.768Z,20.90
2023-05-13T17:25:24.898Z,20.67
2023-05-13T17:27:52.182Z,20.45
2023-05-13T17:30:19.498Z,20.28
2023-05-13T17:32:47.153Z,20.14
2023-05-13T17:35:15.145Z,20.03
2023-05-13T17:37:42.589Z,19.95
2023-05-13T17:40:10.090Z,19.87
2023-05-13T17:42:37.249Z,19.78
2023-05-13T17:45:04.769Z,19.58
2023-05-13T17:47:32.320Z,19.44
2023-05-13T17:49:59.556Z,19.32
2023-05-13T17:52:26.811Z,19.20
2023-05-13T17:54:53.948Z,19.09
2023-05-13T17:57:21.302Z,19.02
2023-05-13T17:59:48.459Z,18.95
2023-05-13T18:02:15.717Z,18.90
2023-05-13T18:04:43.059Z,18.88
2023-05-13T18:07:10.262Z,18.82
2023-05-13T18:09:37.376Z,18.76
2023-05-13T18:12:04.864Z,18.73
2023-05-13T18:15:08.805Z,18.65
2023-05-13T18:17:36.032Z,18.54
2023-05-13T18:20:03.529Z,18.42
2023-05-13T18:22:30.769Z,18.28
2023-05-13T18:24:57.951Z,18.11
2023-05-13T18:27:25.108Z,18.02
2023-05-13T18:29:52.262Z,17.93
2023-05-13T18:32:19.442Z,17.87
2023-05-13T18:34:46.698Z,17.80
2023-05-13T18:37:15.117Z,17.72
2023-05-13T18:39:45.685Z,17.63
2023-05-13T18:42:13.062Z,17.56
2023-05-13T18:44:40.816Z,17.50
2023-05-13T18:47:08.102Z,17.41
2023-05-13T18:49:35.967Z,17.35
2023-05-13T18:52:03.403Z,17.28
2023-05-13T18:54:33.597Z,17.21
2023-05-13T18:57:01.152Z,17.15
2023-05-13T18:59:28.307Z,17.09
2023-05-13T19:01:56.216Z,17.02
2023-05-13T19:04:23.885Z,16.95
2023-05-13T19:06:52.220Z,16.90
2023-05-13T19:09:21.476Z,16.86
2023-05-13T19:11:48.776Z,16.79
2023-05-13T19:14:15.882Z,16.74
2023-05-13T19:16:43.166Z,16.66
2023-05-13T19:19:10.417Z,16.61
2023-05-13T19:21:37.731Z,16.55
2023-05-13T19:24:05.327Z,16.48
2023-05-13T19:26:32.519Z,16.43
2023-05-13T19:28:59.832Z,16.40
2023-05-13T19:31:27.506Z,16.34
2023-05-13T19:33:54.981Z,16.30
2023-05-13T19:36:25.995Z,16.24
2023-05-13T19:38:54.761Z,16.20
2023-05-13T19:41:22.450Z,16.17
2023-05-13T19:43:50.756Z,16.14
2023-05-13T19:46:18.141Z,16.09
2023-05-13T19:48:47.883Z,16.04
2023-05-13T19:51:15.018Z,15.98
2023-05-13T19:53:42.592Z,15.93
2023-05-13T19:56:09.793Z,15.91
2023-05-13T19:58:36.973Z,15.86
2023-05-13T20:01:04.082Z,15.81
2023-05-13T20:03:31.294Z,15.76
2023-05-13T20:05:58.575Z,15.70
2023-05-13T20:08:25.854Z,15.64
2023-05-13T20:10:53.020Z,15.59
2023-05-13T20:13:21.430Z,15.54
2023-05-13T20:15:48.850Z,15.47
2023-05-13T20:18:16.214Z,15.42
2023-05-13T20:20:45.002Z,15.36
2023-05-13T20:23:14.418Z,15.30
2023-05-13T20:25:41.910Z,15.22
2023-05-13T20:28:09.066Z,15.17
2023-05-13T20:30:36.375Z,15.12
2023-05-13T20:33:03.888Z,15.09
2023-05-13T20:35:31.214Z,15.03
2023-05-13T20:37:58.609Z,15.00
2023-05-13T20:40:25.713Z,14.96
2023-05-13T20:42:52.915Z,14.93
2023-05-13T20:45:20.051Z,14.87
2023-05-13T20:47:47.310Z,14.84
2023-05-13T20:50:14.504Z,14.79
2023-05-13T20:52:41.757Z,14.77
2023-05-13T20:55:09.378Z,14.74
2023-05-13T20:57:36.550Z,14.69
2023-05-13T21:00:04.281Z,14.68
2023-05-13T21:02:31.487Z,14.66
2023-05-13T21:04:58.799Z,14.64
2023-05-13T21:07:26.013Z,14.62
2023-05-13T21:09:53.197Z,14.59
2023-05-13T21:12:20.368Z,14.59
2023-05-13T21:14:47.524Z,14.55
2023-05-13T21:17:21.134Z,14.53
2023-05-13T21:19:49.452Z,14.50
2023-05-13T21:22:17.553Z,14.48
2023-05-13T21:24:46.028Z,14.42
2023-05-13T21:27:13.363Z,14.37
2023-05-13T21:29:40.883Z,14.33
2023-05-13T21:32:08.047Z,14.28
2023-05-13T21:34:35.328Z,14.26
2023-05-13T21:37:02.552Z,14.21
2023-05-13T21:39:29.794Z,14.17
2023-05-13T21:41:59.933Z,14.12
2023-05-13T21:44:28.846Z,14.08
2023-05-13T21:46:56.109Z,14.05
2023-05-13T21:49:23.863Z,14.03
2023-05-13T21:51:51.348Z,14.01
2023-05-13T21:54:19.399Z,14.02
2023-05-13T21:56:46.650Z,14.02
2023-05-13T21:59:13.903Z,14.02
2023-05-13T22:01:41.410Z,14.01
2023-05-13T22:04:08.925Z,14.00
2023-05-13T22:06:36.122Z,13.99
2023-05-13T22:09:03.336Z,13.97
2023-05-13T22:11:30.670Z,13.96
2023-05-13T22:13:59.228Z,13.92
2023-05-13T22:16:32.643Z,13.91
2023-05-13T22:19:00.882Z,13.90
2023-05-13T22:21:28.318Z,13.88
2023-05-13T22:23:55.462Z,13.85
2023-05-13T22:26:22.593Z,13.85
2023-05-13T22:28:49.887Z,13.84
2023-05-13T22:31:17.254Z,13.83
2023-05-13T22:33:44.536Z,13.81
2023-05-13T22:36:12.043Z,13.78
2023-05-13T22:38:39.655Z,13.75
2023-05-13T22:41:06.877Z,13.72
2023-05-13T22:43:34.794Z,13.71
2023-05-13T22:46:02.268Z,13.70
2023-05-13T22:48:29.628Z,13.67
2023-05-13T22:50:59.644Z,13.63
2023-05-13T22:53:26.829Z,13.62
2023-05-13T22:55:54.054Z,13.63
2023-05-13T22:58:21.478Z,13.60
2023-05-13T23:00:49.523Z,13.60
2023-05-13T23:03:16.755Z,13.57
2023-05-13T23:05:44.084Z,13.54
2023-05-13T23:08:11.344Z,13.52
2023-05-13T23:10:38.532Z,13.50
2023-05-13T23:13:06.252Z,13.48
2023-05-13T23:15:33.442Z,13.46
2023-05-13T23:18:00.749Z,13.42
2023-05-13T23:20:27.946Z,13.39
2023-05-13T23:22:55.442Z,13.37
2023-05-13T23:25:22.612Z,13.34
2023-05-13T23:27:51.205Z,13.30
2023-05-13T23:30:18.380Z,13.29
2023-05-13T23:32:45.682Z,13.24
2023-05-13T23:35:12.894Z,13.18
2023-05-13T23:37:40.087Z,13.15
2023-05-13T23:40:07.670Z,13.12
2023-05-13T23:42:34.904Z,13.08
2023-05-13T23:45:02.084Z,13.04
2023-05-13T23:47:29.678Z,13.01
2023-05-13T23:49:57.977Z,12.99
2023-05-13T23:52:25.249Z,12.97
2023-05-13T23:54:52.476Z,12.92
2023-05-13T23:57:19.592Z,12.91
2023-05-13T23:59:46.831Z,12.89
